sensor_id;sensor_type;location;lat;lon;timestamp;P1;durP1;ratioP1;P2;durP2;ratioP2
20754;SDS011;26385;48.470;7.938;2022-09-21T00:02:20;8.00;;;5.75;;
20754;SDS011;26385;48.470;7.938;2022-09-21T00:04:45;9.63;;;5.63;;
20754;SDS011;26385;48.470;7.938;2022-09-21T00:07:10;8.43;;;5.63;;
20754;SDS011;26385;48.470;7.938;2022-09-21T00:09:36;8.10;;;5.30;;
20754;SDS011;26385;48.470;7.938;2022-09-21T00:12:01;10.10;;;5.32;;
20754;SDS011;26385;48.470;7.938;2022-09-21T00:14:26;8.00;;;4.90;;
20754;SDS011;26385;48.470;7.938;2022-09-21T00:16:52;11.13;;;5.70;;
20754;SDS011;26385;48.470;7.938;2022-09-21T00:19:18;7.70;;;5.30;;
20754;SDS011;26385;48.470;7.938;2022-09-21T00:21:43;8.25;;;4.78;;
20754;SDS011;26385;48.470;7.938;2022-09-21T00:24:08;8.30;;;5.20;;
20754;SDS011;26385;48.470;7.938;2022-09-21T00:26:34;9.27;;;4.90;;
20754;SDS011;26385;48.470;7.938;2022-09-21T00:29:00;7.45;;;4.38;;
20754;SDS011;26385;48.470;7.938;2022-09-21T00:31:27;7.25;;;4.43;;
20754;SDS011;26385;48.470;7.938;2022-09-21T00:33:53;8.60;;;4.63;;
20754;SDS011;26385;48.470;7.938;2022-09-21T00:36:20;10.07;;;4.57;;
20754;SDS011;26385;48.470;7.938;2022-09-21T00:38:51;6.90;;;4.15;;
20754;SDS011;26385;48.470;7.938;2022-09-21T00:41:18;8.93;;;5.10;;
20754;SDS011;26385;48.470;7.938;2022-09-21T00:43:45;8.50;;;4.82;;
20754;SDS011;26385;48.470;7.938;2022-09-21T00:46:33;7.47;;;4.80;;
20754;SDS011;26385;48.470;7.938;2022-09-21T00:49:01;7.55;;;4.55;;
20754;SDS011;26385;48.470;7.938;2022-09-21T00:51:26;9.43;;;4.68;;
20754;SDS011;26385;48.470;7.938;2022-09-21T00:53:54;10.35;;;4.82;;
20754;SDS011;26385;48.470;7.938;2022-09-21T00:56:25;6.47;;;4.03;;
20754;SDS011;26385;48.470;7.938;2022-09-21T00:58:50;7.72;;;4.93;;
20754;SDS011;26385;48.470;7.938;2022-09-21T01:01:18;7.40;;;4.43;;
20754;SDS011;26385;48.470;7.938;2022-09-21T01:03:47;7.03;;;4.10;;
20754;SDS011;26385;48.470;7.938;2022-09-21T01:06:16;8.00;;;4.30;;
20754;SDS011;26385;48.470;7.938;2022-09-21T01:08:44;7.72;;;3.58;;
20754;SDS011;26385;48.470;7.938;2022-09-21T01:11:18;4.43;;;3.20;;
20754;SDS011;26385;48.470;7.938;2022-09-21T01:14:02;6.03;;;3.30;;
20754;SDS011;26385;48.470;7.938;2022-09-21T01:17:02;5.38;;;3.20;;
20754;SDS011;26385;48.470;7.938;2022-09-21T01:22:43;6.65;;;3.00;;
20754;SDS011;26385;48.470;7.938;2022-09-21T01:28:50;5.05;;;2.70;;
20754;SDS011;26385;48.470;7.938;2022-09-21T01:31:36;4.45;;;2.63;;
20754;SDS011;26385;48.470;7.938;2022-09-21T01:34:07;6.07;;;2.33;;
20754;SDS011;26385;48.470;7.938;2022-09-21T01:36:40;4.43;;;2.50;;
20754;SDS011;26385;48.470;7.938;2022-09-21T01:39:10;4.55;;;2.22;;
20754;SDS011;26385;48.470;7.938;2022-09-21T01:41:38;4.82;;;2.20;;
20754;SDS011;26385;48.470;7.938;2022-09-21T01:44:07;5.68;;;2.25;;
20754;SDS011;26385;48.470;7.938;2022-09-21T01:46:36;2.58;;;1.98;;
20754;SDS011;26385;48.470;7.938;2022-09-21T01:49:04;3.58;;;2.10;;
20754;SDS011;26385;48.470;7.938;2022-09-21T01:51:35;3.28;;;1.90;;
20754;SDS011;26385;48.470;7.938;2022-09-21T01:54:09;6.63;;;2.05;;
20754;SDS011;26385;48.470;7.938;2022-09-21T01:56:46;5.35;;;2.50;;
20754;SDS011;26385;48.470;7.938;2022-09-21T01:59:16;5.30;;;2.28;;
20754;SDS011;26385;48.470;7.938;2022-09-21T02:01:52;5.72;;;2.70;;
20754;SDS011;26385;48.470;7.938;2022-09-21T02:04:21;4.20;;;2.33;;
20754;SDS011;26385;48.470;7.938;2022-09-21T02:06:47;6.72;;;2.72;;
20754;SDS011;26385;48.470;7.938;2022-09-21T02:09:14;3.25;;;2.50;;
20754;SDS011;26385;48.470;7.938;2022-09-21T02:11:41;3.88;;;2.15;;
20754;SDS011;26385;48.470;7.938;2022-09-21T02:14:09;3.72;;;2.10;;
20754;SDS011;26385;48.470;7.938;2022-09-21T02:17:22;6.53;;;2.25;;
20754;SDS011;26385;48.470;7.938;2022-09-21T02:19:52;3.13;;;2.40;;
20754;SDS011;26385;48.470;7.938;2022-09-21T02:22:31;5.47;;;2.13;;
20754;SDS011;26385;48.470;7.938;2022-09-21T02:25:20;4.70;;;2.30;;
20754;SDS011;26385;48.470;7.938;2022-09-21T02:27:53;5.30;;;2.17;;
20754;SDS011;26385;48.470;7.938;2022-09-21T02:30:23;2.75;;;2.38;;
20754;SDS011;26385;48.470;7.938;2022-09-21T02:38:21;3.88;;;2.17;;
20754;SDS011;26385;48.470;7.938;2022-09-21T02:43:34;4.20;;;2.38;;
20754;SDS011;26385;48.470;7.938;2022-09-21T02:46:21;4.70;;;2.38;;
20754;SDS011;26385;48.470;7.938;2022-09-21T02:48:55;7.80;;;2.50;;
20754;SDS011;26385;48.470;7.938;2022-09-21T02:51:26;5.13;;;2.72;;
20754;SDS011;26385;48.470;7.938;2022-09-21T02:53:55;5.50;;;2.58;;
20754;SDS011;26385;48.470;7.938;2022-09-21T02:56:24;3.95;;;2.55;;
20754;SDS011;26385;48.470;7.938;2022-09-21T02:58:51;4.22;;;2.90;;
20754;SDS011;26385;48.470;7.938;2022-09-21T03:01:20;5.25;;;2.92;;
20754;SDS011;26385;48.470;7.938;2022-09-21T03:03:48;4.78;;;2.50;;
20754;SDS011;26385;48.470;7.938;2022-09-21T03:06:13;4.78;;;2.88;;
20754;SDS011;26385;48.470;7.938;2022-09-21T03:08:38;6.68;;;3.67;;
20754;SDS011;26385;48.470;7.938;2022-09-21T03:11:04;4.35;;;3.45;;
20754;SDS011;26385;48.470;7.938;2022-09-21T03:13:30;4.95;;;3.22;;
20754;SDS011;26385;48.470;7.938;2022-09-21T03:16:02;8.90;;;4.03;;
20754;SDS011;26385;48.470;7.938;2022-09-21T03:18:30;7.05;;;4.15;;
20754;SDS011;26385;48.470;7.938;2022-09-21T03:20:55;6.35;;;4.03;;
20754;SDS011;26385;48.470;7.938;2022-09-21T03:23:21;5.20;;;3.83;;
20754;SDS011;26385;48.470;7.938;2022-09-21T03:25:47;6.88;;;4.25;;
20754;SDS011;26385;48.470;7.938;2022-09-21T03:28:13;7.68;;;4.78;;
20754;SDS011;26385;48.470;7.938;2022-09-21T03:30:39;6.22;;;4.43;;
20754;SDS011;26385;48.470;7.938;2022-09-21T03:33:05;8.18;;;4.40;;
20754;SDS011;26385;48.470;7.938;2022-09-21T03:35:31;8.07;;;5.00;;
20754;SDS011;26385;48.470;7.938;2022-09-21T03:37:59;10.05;;;5.70;;
20754;SDS011;26385;48.470;7.938;2022-09-21T03:40:26;8.88;;;5.63;;
20754;SDS011;26385;48.470;7.938;2022-09-21T03:42:52;8.90;;;5.60;;
20754;SDS011;26385;48.470;7.938;2022-09-21T03:45:18;12.27;;;5.22;;
20754;SDS011;26385;48.470;7.938;2022-09-21T03:47:48;8.05;;;5.50;;
20754;SDS011;26385;48.470;7.938;2022-09-21T03:50:14;9.07;;;4.97;;
20754;SDS011;26385;48.470;7.938;2022-09-21T03:52:39;7.68;;;5.20;;
20754;SDS011;26385;48.470;7.938;2022-09-21T03:55:06;7.72;;;4.93;;
20754;SDS011;26385;48.470;7.938;2022-09-21T03:57:33;6.82;;;4.50;;
20754;SDS011;26385;48.470;7.938;2022-09-21T04:00:00;8.98;;;4.93;;
20754;SDS011;26385;48.470;7.938;2022-09-21T04:02:27;8.10;;;5.10;;
20754;SDS011;26385;48.470;7.938;2022-09-21T04:04:52;7.03;;;4.97;;
20754;SDS011;26385;48.470;7.938;2022-09-21T04:07:18;6.90;;;5.13;;
20754;SDS011;26385;48.470;7.938;2022-09-21T04:09:43;8.23;;;4.90;;
20754;SDS011;26385;48.470;7.938;2022-09-21T04:12:08;5.95;;;4.60;;
20754;SDS011;26385;48.470;7.938;2022-09-21T04:14:33;8.50;;;4.53;;
20754;SDS011;26385;48.470;7.938;2022-09-21T04:16:59;7.72;;;4.63;;
20754;SDS011;26385;48.470;7.938;2022-09-21T04:19:24;8.00;;;4.53;;
20754;SDS011;26385;48.470;7.938;2022-09-21T04:21:49;7.07;;;4.35;;
20754;SDS011;26385;48.470;7.938;2022-09-21T04:24:15;7.25;;;4.82;;
20754;SDS011;26385;48.470;7.938;2022-09-21T04:26:42;5.45;;;2.95;;
20754;SDS011;26385;48.470;7.938;2022-09-21T04:29:08;8.43;;;5.03;;
20754;SDS011;26385;48.470;7.938;2022-09-21T04:31:34;37.35;;;10.40;;
20754;SDS011;26385;48.470;7.938;2022-09-21T04:34:00;46.03;;;11.15;;
20754;SDS011;26385;48.470;7.938;2022-09-21T04:36:28;49.08;;;11.82;;
20754;SDS011;26385;48.470;7.938;2022-09-21T04:38:53;15.15;;;6.28;;
20754;SDS011;26385;48.470;7.938;2022-09-21T04:41:19;9.73;;;5.70;;
20754;SDS011;26385;48.470;7.938;2022-09-21T04:43:45;8.63;;;4.97;;
20754;SDS011;26385;48.470;7.938;2022-09-21T04:46:12;6.63;;;4.50;;
20754;SDS011;26385;48.470;7.938;2022-09-21T04:48:41;8.00;;;4.68;;
20754;SDS011;26385;48.470;7.938;2022-09-21T04:51:22;6.88;;;4.97;;
20754;SDS011;26385;48.470;7.938;2022-09-21T04:53:47;6.10;;;4.93;;
20754;SDS011;26385;48.470;7.938;2022-09-21T04:56:13;8.85;;;5.43;;
20754;SDS011;26385;48.470;7.938;2022-09-21T04:58:39;8.70;;;5.75;;
20754;SDS011;26385;48.470;7.938;2022-09-21T05:01:05;9.82;;;5.85;;
20754;SDS011;26385;48.470;7.938;2022-09-21T05:03:31;7.63;;;5.03;;
20754;SDS011;26385;48.470;7.938;2022-09-21T05:05:57;10.00;;;5.75;;
20754;SDS011;26385;48.470;7.938;2022-09-21T05:08:23;10.68;;;6.88;;
20754;SDS011;26385;48.470;7.938;2022-09-21T05:11:09;11.60;;;6.20;;
20754;SDS011;26385;48.470;7.938;2022-09-21T05:13:37;11.25;;;7.00;;
20754;SDS011;26385;48.470;7.938;2022-09-21T05:16:03;8.32;;;6.25;;
20754;SDS011;26385;48.470;7.938;2022-09-21T05:18:28;7.78;;;5.75;;
20754;SDS011;26385;48.470;7.938;2022-09-21T05:20:54;11.75;;;6.10;;
20754;SDS011;26385;48.470;7.938;2022-09-21T05:23:21;7.43;;;5.35;;
20754;SDS011;26385;48.470;7.938;2022-09-21T05:25:46;9.95;;;5.05;;
20754;SDS011;26385;48.470;7.938;2022-09-21T05:28:12;7.18;;;4.93;;
20754;SDS011;26385;48.470;7.938;2022-09-21T05:30:37;6.88;;;4.60;;
20754;SDS011;26385;48.470;7.938;2022-09-21T05:33:03;6.13;;;5.20;;
20754;SDS011;26385;48.470;7.938;2022-09-21T05:35:44;9.23;;;5.32;;
20754;SDS011;26385;48.470;7.938;2022-09-21T05:38:16;6.97;;;4.95;;
20754;SDS011;26385;48.470;7.938;2022-09-21T05:40:43;8.10;;;5.40;;
20754;SDS011;26385;48.470;7.938;2022-09-21T05:43:09;7.32;;;5.18;;
20754;SDS011;26385;48.470;7.938;2022-09-21T05:45:45;8.98;;;5.88;;
20754;SDS011;26385;48.470;7.938;2022-09-21T05:48:18;10.88;;;5.72;;
20754;SDS011;26385;48.470;7.938;2022-09-21T05:51:03;9.77;;;5.60;;
20754;SDS011;26385;48.470;7.938;2022-09-21T05:53:59;9.52;;;5.82;;
20754;SDS011;26385;48.470;7.938;2022-09-21T05:56:53;9.10;;;6.28;;
20754;SDS011;26385;48.470;7.938;2022-09-21T05:59:31;6.90;;;5.53;;
20754;SDS011;26385;48.470;7.938;2022-09-21T06:04:45;8.73;;;5.68;;
20754;SDS011;26385;48.470;7.938;2022-09-21T06:07:11;8.52;;;6.00;;
20754;SDS011;26385;48.470;7.938;2022-09-21T06:09:36;8.70;;;5.60;;
20754;SDS011;26385;48.470;7.938;2022-09-21T06:12:02;9.35;;;6.00;;
20754;SDS011;26385;48.470;7.938;2022-09-21T06:14:28;11.15;;;7.13;;
20754;SDS011;26385;48.470;7.938;2022-09-21T06:16:53;11.80;;;8.88;;
20754;SDS011;26385;48.470;7.938;2022-09-21T06:19:18;12.93;;;8.65;;
20754;SDS011;26385;48.470;7.938;2022-09-21T06:21:44;11.25;;;8.13;;
20754;SDS011;26385;48.470;7.938;2022-09-21T06:24:09;12.73;;;6.75;;
20754;SDS011;26385;48.470;7.938;2022-09-21T06:26:35;11.80;;;6.75;;
20754;SDS011;26385;48.470;7.938;2022-09-21T06:29:01;10.15;;;6.85;;
20754;SDS011;26385;48.470;7.938;2022-09-21T06:31:26;8.00;;;6.25;;
20754;SDS011;26385;48.470;7.938;2022-09-21T06:33:52;9.60;;;6.57;;
20754;SDS011;26385;48.470;7.938;2022-09-21T06:36:17;10.65;;;7.65;;
20754;SDS011;26385;48.470;7.938;2022-09-21T06:38:42;9.75;;;7.50;;
20754;SDS011;26385;48.470;7.938;2022-09-21T06:41:08;9.55;;;7.38;;
20754;SDS011;26385;48.470;7.938;2022-09-21T06:43:33;9.10;;;7.28;;
20754;SDS011;26385;48.470;7.938;2022-09-21T06:45:59;12.20;;;8.23;;
20754;SDS011;26385;48.470;7.938;2022-09-21T06:48:26;14.13;;;7.95;;
20754;SDS011;26385;48.470;7.938;2022-09-21T06:50:56;9.57;;;7.63;;
20754;SDS011;26385;48.470;7.938;2022-09-21T06:53:23;12.15;;;7.97;;
20754;SDS011;26385;48.470;7.938;2022-09-21T06:55:49;12.55;;;8.60;;
20754;SDS011;26385;48.470;7.938;2022-09-21T06:58:14;11.55;;;8.60;;
20754;SDS011;26385;48.470;7.938;2022-09-21T07:00:39;10.95;;;8.38;;
20754;SDS011;26385;48.470;7.938;2022-09-21T07:03:05;14.80;;;7.80;;
20754;SDS011;26385;48.470;7.938;2022-09-21T07:05:31;11.02;;;7.85;;
20754;SDS011;26385;48.470;7.938;2022-09-21T07:07:58;9.85;;;7.25;;
20754;SDS011;26385;48.470;7.938;2022-09-21T07:10:23;8.82;;;7.28;;
20754;SDS011;26385;48.470;7.938;2022-09-21T07:12:49;12.60;;;7.25;;
20754;SDS011;26385;48.470;7.938;2022-09-21T07:15:16;10.80;;;6.68;;
20754;SDS011;26385;48.470;7.938;2022-09-21T07:17:43;12.00;;;6.70;;
20754;SDS011;26385;48.470;7.938;2022-09-21T07:20:09;13.40;;;6.90;;
20754;SDS011;26385;48.470;7.938;2022-09-21T07:22:34;12.23;;;7.07;;
20754;SDS011;26385;48.470;7.938;2022-09-21T07:25:00;7.20;;;5.50;;
20754;SDS011;26385;48.470;7.938;2022-09-21T07:27:27;10.15;;;5.80;;
20754;SDS011;26385;48.470;7.938;2022-09-21T07:29:54;9.80;;;5.70;;
20754;SDS011;26385;48.470;7.938;2022-09-21T07:32:19;9.88;;;5.53;;
20754;SDS011;26385;48.470;7.938;2022-09-21T07:34:45;8.90;;;5.40;;
20754;SDS011;26385;48.470;7.938;2022-09-21T07:37:10;6.78;;;5.03;;
20754;SDS011;26385;48.470;7.938;2022-09-21T07:39:36;6.72;;;4.82;;
20754;SDS011;26385;48.470;7.938;2022-09-21T07:42:02;7.78;;;5.13;;
20754;SDS011;26385;48.470;7.938;2022-09-21T07:44:28;8.43;;;5.30;;
20754;SDS011;26385;48.470;7.938;2022-09-21T07:46:54;8.07;;;5.57;;
20754;SDS011;26385;48.470;7.938;2022-09-21T07:49:19;8.75;;;5.50;;
20754;SDS011;26385;48.470;7.938;2022-09-21T07:51:44;8.82;;;5.60;;
20754;SDS011;26385;48.470;7.938;2022-09-21T07:54:10;12.75;;;5.90;;
20754;SDS011;26385;48.470;7.938;2022-09-21T07:56:36;8.30;;;5.80;;
20754;SDS011;26385;48.470;7.938;2022-09-21T07:59:02;9.45;;;6.20;;
20754;SDS011;26385;48.470;7.938;2022-09-21T08:01:38;9.32;;;5.68;;
20754;SDS011;26385;48.470;7.938;2022-09-21T08:04:05;6.97;;;5.38;;
20754;SDS011;26385;48.470;7.938;2022-09-21T08:06:32;10.55;;;5.78;;
20754;SDS011;26385;48.470;7.938;2022-09-21T08:09:00;12.90;;;6.65;;
20754;SDS011;26385;48.470;7.938;2022-09-21T08:11:26;8.23;;;5.35;;
20754;SDS011;26385;48.470;7.938;2022-09-21T08:13:55;6.72;;;5.15;;
20754;SDS011;26385;48.470;7.938;2022-09-21T08:16:22;7.78;;;5.68;;
20754;SDS011;26385;48.470;7.938;2022-09-21T08:18:47;12.20;;;6.40;;
20754;SDS011;26385;48.470;7.938;2022-09-21T08:21:12;10.95;;;5.82;;
20754;SDS011;26385;48.470;7.938;2022-09-21T08:23:37;11.45;;;6.20;;
20754;SDS011;26385;48.470;7.938;2022-09-21T08:26:06;8.13;;;5.78;;
20754;SDS011;26385;48.470;7.938;2022-09-21T08:28:32;9.73;;;5.78;;
20754;SDS011;26385;48.470;7.938;2022-09-21T08:31:00;10.50;;;6.35;;
20754;SDS011;26385;48.470;7.938;2022-09-21T08:33:26;9.50;;;5.75;;
20754;SDS011;26385;48.470;7.938;2022-09-21T08:35:55;8.70;;;5.13;;
20754;SDS011;26385;48.470;7.938;2022-09-21T08:38:22;6.40;;;5.22;;
20754;SDS011;26385;48.470;7.938;2022-09-21T08:40:47;7.55;;;5.68;;
20754;SDS011;26385;48.470;7.938;2022-09-21T08:43:15;9.40;;;5.22;;
20754;SDS011;26385;48.470;7.938;2022-09-21T08:45:46;9.57;;;5.40;;
20754;SDS011;26385;48.470;7.938;2022-09-21T08:48:25;7.13;;;4.68;;
20754;SDS011;26385;48.470;7.938;2022-09-21T08:50:55;8.07;;;4.80;;
20754;SDS011;26385;48.470;7.938;2022-09-21T08:53:33;10.07;;;5.03;;
20754;SDS011;26385;48.470;7.938;2022-09-21T08:56:02;7.03;;;4.60;;
20754;SDS011;26385;48.470;7.938;2022-09-21T08:58:29;4.78;;;4.22;;
20754;SDS011;26385;48.470;7.938;2022-09-21T09:01:01;7.28;;;4.50;;
20754;SDS011;26385;48.470;7.938;2022-09-21T09:09:16;5.43;;;3.47;;
20754;SDS011;26385;48.470;7.938;2022-09-21T09:17:52;7.55;;;3.15;;
20754;SDS011;26385;48.470;7.938;2022-09-21T09:25:30;10.00;;;3.50;;
20754;SDS011;26385;48.470;7.938;2022-09-21T09:28:22;7.72;;;3.10;;
20754;SDS011;26385;48.470;7.938;2022-09-21T09:30:56;5.07;;;3.40;;
20754;SDS011;26385;48.470;7.938;2022-09-21T09:33:25;6.82;;;2.75;;
20754;SDS011;26385;48.470;7.938;2022-09-21T09:36:08;5.35;;;2.83;;
20754;SDS011;26385;48.470;7.938;2022-09-21T09:39:18;4.95;;;2.33;;
20754;SDS011;26385;48.470;7.938;2022-09-21T09:44:11;5.32;;;2.63;;
20754;SDS011;26385;48.470;7.938;2022-09-21T09:46:55;5.95;;;2.63;;
20754;SDS011;26385;48.470;7.938;2022-09-21T09:52:03;5.38;;;2.58;;
20754;SDS011;26385;48.470;7.938;2022-09-21T09:54:31;4.88;;;2.58;;
20754;SDS011;26385;48.470;7.938;2022-09-21T09:56:59;5.57;;;2.67;;
20754;SDS011;26385;48.470;7.938;2022-09-21T10:02:02;4.50;;;2.63;;
20754;SDS011;26385;48.470;7.938;2022-09-21T10:04:28;6.07;;;2.20;;
20754;SDS011;26385;48.470;7.938;2022-09-21T10:06:54;5.63;;;2.50;;
20754;SDS011;26385;48.470;7.938;2022-09-21T10:09:24;4.72;;;2.30;;
20754;SDS011;26385;48.470;7.938;2022-09-21T10:11:57;4.22;;;2.63;;
20754;SDS011;26385;48.470;7.938;2022-09-21T10:14:26;5.40;;;2.30;;
20754;SDS011;26385;48.470;7.938;2022-09-21T10:16:55;5.95;;;2.30;;
20754;SDS011;26385;48.470;7.938;2022-09-21T10:19:29;5.28;;;2.42;;
20754;SDS011;26385;48.470;7.938;2022-09-21T10:21:59;5.28;;;2.47;;
20754;SDS011;26385;48.470;7.938;2022-09-21T10:24:30;4.78;;;2.00;;
20754;SDS011;26385;48.470;7.938;2022-09-21T10:27:02;3.28;;;2.38;;
20754;SDS011;26385;48.470;7.938;2022-09-21T10:29:31;5.72;;;2.17;;
20754;SDS011;26385;48.470;7.938;2022-09-21T10:32:27;4.25;;;1.90;;
20754;SDS011;26385;48.470;7.938;2022-09-21T10:37:34;3.13;;;1.90;;
20754;SDS011;26385;48.470;7.938;2022-09-21T10:42:43;3.90;;;2.15;;
20754;SDS011;26385;48.470;7.938;2022-09-21T10:45:15;2.58;;;1.70;;
20754;SDS011;26385;48.470;7.938;2022-09-21T10:47:42;4.82;;;2.45;;
20754;SDS011;26385;48.470;7.938;2022-09-21T10:50:24;4.95;;;2.03;;
20754;SDS011;26385;48.470;7.938;2022-09-21T10:52:57;6.05;;;1.90;;
20754;SDS011;26385;48.470;7.938;2022-09-21T10:55:24;2.72;;;2.00;;
20754;SDS011;26385;48.470;7.938;2022-09-21T10:57:53;5.40;;;1.80;;
20754;SDS011;26385;48.470;7.938;2022-09-21T11:02:53;2.97;;;1.70;;
20754;SDS011;26385;48.470;7.938;2022-09-21T11:05:24;2.88;;;2.28;;
20754;SDS011;26385;48.470;7.938;2022-09-21T11:07:55;5.35;;;1.95;;
20754;SDS011;26385;48.470;7.938;2022-09-21T11:10:28;5.50;;;2.00;;
20754;SDS011;26385;48.470;7.938;2022-09-21T11:15:45;2.97;;;2.03;;
20754;SDS011;26385;48.470;7.938;2022-09-21T11:24:30;4.45;;;1.65;;
20754;SDS011;26385;48.470;7.938;2022-09-21T11:27:15;2.65;;;1.52;;
20754;SDS011;26385;48.470;7.938;2022-09-21T11:29:49;3.10;;;1.80;;
20754;SDS011;26385;48.470;7.938;2022-09-21T11:35:27;6.28;;;3.70;;
20754;SDS011;26385;48.470;7.938;2022-09-21T11:46:23;5.03;;;1.77;;
20754;SDS011;26385;48.470;7.938;2022-09-21T11:52:00;2.58;;;1.90;;
20754;SDS011;26385;48.470;7.938;2022-09-21T12:00:18;4.32;;;1.60;;
20754;SDS011;26385;48.470;7.938;2022-09-21T12:08:09;5.53;;;1.85;;
20754;SDS011;26385;48.470;7.938;2022-09-21T12:14:12;2.47;;;1.38;;
20754;SDS011;26385;48.470;7.938;2022-09-21T12:17:13;5.18;;;1.60;;
20754;SDS011;26385;48.470;7.938;2022-09-21T12:22:32;4.00;;;1.50;;
20754;SDS011;26385;48.470;7.938;2022-09-21T12:25:16;1.83;;;1.50;;
20754;SDS011;26385;48.470;7.938;2022-09-21T12:27:48;2.67;;;1.40;;
20754;SDS011;26385;48.470;7.938;2022-09-21T12:30:22;3.20;;;1.33;;
20754;SDS011;26385;48.470;7.938;2022-09-21T12:35:37;2.30;;;1.20;;
20754;SDS011;26385;48.470;7.938;2022-09-21T12:38:14;1.88;;;1.40;;
20754;SDS011;26385;48.470;7.938;2022-09-21T12:40:46;6.15;;;1.80;;
20754;SDS011;26385;48.470;7.938;2022-09-21T12:43:22;3.00;;;1.70;;
20754;SDS011;26385;48.470;7.938;2022-09-21T12:46:01;2.28;;;1.30;;
20754;SDS011;26385;48.470;7.938;2022-09-21T12:48:35;1.50;;;1.23;;
20754;SDS011;26385;48.470;7.938;2022-09-21T12:51:10;2.75;;;1.25;;
20754;SDS011;26385;48.470;7.938;2022-09-21T12:53:44;2.25;;;1.23;;
20754;SDS011;26385;48.470;7.938;2022-09-21T12:56:14;3.30;;;1.30;;
20754;SDS011;26385;48.470;7.938;2022-09-21T13:01:41;1.98;;;1.10;;
20754;SDS011;26385;48.470;7.938;2022-09-21T13:10:47;3.03;;;1.23;;
20754;SDS011;26385;48.470;7.938;2022-09-21T13:12:59;0.95;;;0.95;;
20754;SDS011;26385;48.470;7.938;2022-09-21T13:15:31;1.08;;;0.65;;
20754;SDS011;26385;48.470;7.938;2022-09-21T13:18:06;2.58;;;1.00;;
20754;SDS011;26385;48.470;7.938;2022-09-21T13:20:45;1.88;;;1.08;;
20754;SDS011;26385;48.470;7.938;2022-09-21T13:23:16;1.08;;;0.70;;
20754;SDS011;26385;48.470;7.938;2022-09-21T13:25:49;0.90;;;0.80;;
20754;SDS011;26385;48.470;7.938;2022-09-21T13:28:24;1.85;;;1.00;;
20754;SDS011;26385;48.470;7.938;2022-09-21T13:31:38;2.55;;;0.90;;
20754;SDS011;26385;48.470;7.938;2022-09-21T13:36:43;1.23;;;0.80;;
20754;SDS011;26385;48.470;7.938;2022-09-21T13:41:34;1.33;;;0.80;;
20754;SDS011;26385;48.470;7.938;2022-09-21T13:51:34;1.02;;;0.90;;
20754;SDS011;26385;48.470;7.938;2022-09-21T13:54:13;1.30;;;0.90;;
20754;SDS011;26385;48.470;7.938;2022-09-21T13:56:39;2.35;;;0.90;;
20754;SDS011;26385;48.470;7.938;2022-09-21T13:59:11;1.17;;;0.70;;
20754;SDS011;26385;48.470;7.938;2022-09-21T14:01:46;1.42;;;0.93;;
20754;SDS011;26385;48.470;7.938;2022-09-21T14:04:22;0.85;;;0.75;;
20754;SDS011;26385;48.470;7.938;2022-09-21T14:06:55;1.63;;;0.90;;
20754;SDS011;26385;48.470;7.938;2022-09-21T14:09:25;1.00;;;0.80;;
20754;SDS011;26385;48.470;7.938;2022-09-21T14:11:55;1.75;;;1.20;;
20754;SDS011;26385;48.470;7.938;2022-09-21T14:14:27;1.27;;;0.90;;
20754;SDS011;26385;48.470;7.938;2022-09-21T14:17:01;1.35;;;0.75;;
20754;SDS011;26385;48.470;7.938;2022-09-21T14:24:45;1.95;;;1.20;;
20754;SDS011;26385;48.470;7.938;2022-09-21T14:35:22;1.10;;;0.80;;
20754;SDS011;26385;48.470;7.938;2022-09-21T14:37:49;1.10;;;0.63;;
20754;SDS011;26385;48.470;7.938;2022-09-21T14:40:21;0.98;;;0.70;;
20754;SDS011;26385;48.470;7.938;2022-09-21T14:42:52;2.25;;;0.60;;
20754;SDS011;26385;48.470;7.938;2022-09-21T14:45:21;1.23;;;0.60;;
20754;SDS011;26385;48.470;7.938;2022-09-21T15:02:26;2.28;;;0.88;;
20754;SDS011;26385;48.470;7.938;2022-09-21T15:10:31;0.88;;;0.80;;
20754;SDS011;26385;48.470;7.938;2022-09-21T15:13:26;0.60;;;0.60;;
20754;SDS011;26385;48.470;7.938;2022-09-21T15:16:04;1.90;;;0.82;;
20754;SDS011;26385;48.470;7.938;2022-09-21T15:18:41;1.55;;;0.77;;
20754;SDS011;26385;48.470;7.938;2022-09-21T15:21:15;0.90;;;0.85;;
20754;SDS011;26385;48.470;7.938;2022-09-21T15:23:45;1.15;;;1.05;;
20754;SDS011;26385;48.470;7.938;2022-09-21T15:26:21;1.00;;;0.93;;
20754;SDS011;26385;48.470;7.938;2022-09-21T15:28:55;1.17;;;0.73;;
20754;SDS011;26385;48.470;7.938;2022-09-21T15:31:22;0.95;;;0.85;;
20754;SDS011;26385;48.470;7.938;2022-09-21T15:33:49;1.08;;;0.90;;
20754;SDS011;26385;48.470;7.938;2022-09-21T15:36:23;1.52;;;0.90;;
20754;SDS011;26385;48.470;7.938;2022-09-21T15:38:51;2.03;;;1.10;;
20754;SDS011;26385;48.470;7.938;2022-09-21T15:44:04;1.10;;;0.98;;
20754;SDS011;26385;48.470;7.938;2022-09-21T15:46:36;1.30;;;0.90;;
20754;SDS011;26385;48.470;7.938;2022-09-21T15:49:01;2.03;;;0.80;;
20754;SDS011;26385;48.470;7.938;2022-09-21T15:51:29;0.90;;;0.80;;
20754;SDS011;26385;48.470;7.938;2022-09-21T15:54:22;2.58;;;1.00;;
20754;SDS011;26385;48.470;7.938;2022-09-21T15:56:58;1.77;;;1.00;;
20754;SDS011;26385;48.470;7.938;2022-09-21T15:59:25;1.63;;;0.88;;
20754;SDS011;26385;48.470;7.938;2022-09-21T16:01:52;1.15;;;0.88;;
20754;SDS011;26385;48.470;7.938;2022-09-21T16:04:21;1.25;;;0.90;;
20754;SDS011;26385;48.470;7.938;2022-09-21T16:07:01;2.15;;;0.90;;
20754;SDS011;26385;48.470;7.938;2022-09-21T16:09:35;4.00;;;1.10;;
20754;SDS011;26385;48.470;7.938;2022-09-21T16:14:50;1.88;;;0.90;;
20754;SDS011;26385;48.470;7.938;2022-09-21T16:24:54;1.25;;;1.00;;
20754;SDS011;26385;48.470;7.938;2022-09-21T16:27:22;2.17;;;1.00;;
20754;SDS011;26385;48.470;7.938;2022-09-21T16:29:50;3.53;;;1.00;;
20754;SDS011;26385;48.470;7.938;2022-09-21T16:34:45;2.38;;;0.80;;
20754;SDS011;26385;48.470;7.938;2022-09-21T16:39:53;1.42;;;0.75;;
20754;SDS011;26385;48.470;7.938;2022-09-21T16:42:20;0.85;;;0.80;;
20754;SDS011;26385;48.470;7.938;2022-09-21T16:44:46;1.15;;;0.73;;
20754;SDS011;26385;48.470;7.938;2022-09-21T16:47:20;1.63;;;0.70;;
20754;SDS011;26385;48.470;7.938;2022-09-21T16:49:49;0.80;;;0.80;;
20754;SDS011;26385;48.470;7.938;2022-09-21T16:52:17;1.27;;;0.77;;
20754;SDS011;26385;48.470;7.938;2022-09-21T16:54:42;1.23;;;0.90;;
20754;SDS011;26385;48.470;7.938;2022-09-21T16:57:09;1.10;;;1.00;;
20754;SDS011;26385;48.470;7.938;2022-09-21T16:59:37;1.00;;;0.88;;
20754;SDS011;26385;48.470;7.938;2022-09-21T17:02:02;1.20;;;0.93;;
20754;SDS011;26385;48.470;7.938;2022-09-21T17:04:30;1.50;;;1.00;;
20754;SDS011;26385;48.470;7.938;2022-09-21T17:06:57;4.22;;;1.75;;
20754;SDS011;26385;48.470;7.938;2022-09-21T17:11:47;2.97;;;2.28;;
20754;SDS011;26385;48.470;7.938;2022-09-21T17:14:15;3.05;;;2.10;;
20754;SDS011;26385;48.470;7.938;2022-09-21T17:16:45;3.28;;;2.55;;
20754;SDS011;26385;48.470;7.938;2022-09-21T17:19:12;3.00;;;1.73;;
20754;SDS011;26385;48.470;7.938;2022-09-21T17:21:38;1.73;;;1.30;;
20754;SDS011;26385;48.470;7.938;2022-09-21T17:24:03;9.32;;;5.30;;
20754;SDS011;26385;48.470;7.938;2022-09-21T17:26:30;2.03;;;1.50;;
20754;SDS011;26385;48.470;7.938;2022-09-21T17:28:56;2.00;;;1.20;;
20754;SDS011;26385;48.470;7.938;2022-09-21T17:31:21;2.35;;;1.30;;
20754;SDS011;26385;48.470;7.938;2022-09-21T17:33:48;2.22;;;1.00;;
20754;SDS011;26385;48.470;7.938;2022-09-21T17:36:14;1.08;;;1.00;;
20754;SDS011;26385;48.470;7.938;2022-09-21T17:38:41;2.05;;;1.17;;
20754;SDS011;26385;48.470;7.938;2022-09-21T17:44:10;2.13;;;1.30;;
20754;SDS011;26385;48.470;7.938;2022-09-21T17:46:51;3.00;;;1.30;;
20754;SDS011;26385;48.470;7.938;2022-09-21T17:49:24;1.67;;;1.27;;
20754;SDS011;26385;48.470;7.938;2022-09-21T17:51:50;2.47;;;1.30;;
20754;SDS011;26385;48.470;7.938;2022-09-21T17:54:34;15.77;;;11.68;;
20754;SDS011;26385;48.470;7.938;2022-09-21T17:57:05;9.10;;;6.20;;